Terminal Aerodrome Forecast
Issued by NWS

Current Version | Previous Version | Text Only | Print | Product List | Glossary On
Versions: 1 2 3 4 5 6 7 8 9 10 11 12 13 14 15 16
000
FTUS46 KMTR 310500
TAFMRY
TAF
KMRY 310537Z 3106/0106 VRB04KT P6SM OVC003
     FM311730 30005KT P6SM SKC
     FM312200 24010KT P6SM SKC
     FM010300 26007KT P6SM OVC007=

USA.gov is the U.S. government's official web portal to all federal, state and local government web resources and services.